createdAt,value
2023-04-25T00:01:02.546Z,87.43
2023-04-25T00:02:04.029Z,87.23
2023-04-25T00:03:06.883Z,87.10
2023-04-25T00:04:08.592Z,87.24
2023-04-25T00:05:10.666Z,87.60
2023-04-25T00:06:12.530Z,87.23
2023-04-25T00:07:14.041Z,87.25
2023-04-25T00:08:15.523Z,87.37
2023-04-25T00:09:17.101Z,87.39
2023-04-25T00:10:19.750Z,87.37
2023-04-25T00:11:21.230Z,87.21
2023-04-25T00:12:23.248Z,87.12
2023-04-25T00:13:25.869Z,87.18
2023-04-25T00:14:28.063Z,87.30
2023-04-25T00:15:32.363Z,87.14
2023-04-25T00:16:35.167Z,87.16
2023-04-25T00:17:38.624Z,87.09
2023-04-25T00:18:40.127Z,87.02
2023-04-25T00:19:41.626Z,87.03
2023-04-25T00:20:46.693Z,86.78
2023-04-25T00:21:48.313Z,86.91
2023-04-25T00:22:50.048Z,86.79
2023-04-25T00:23:53.421Z,86.61
2023-04-25T00:24:57.523Z,86.86
2023-04-25T00:25:58.987Z,86.76
2023-04-25T00:27:00.423Z,86.84
2023-04-25T00:28:01.908Z,86.57
2023-04-25T00:29:03.846Z,86.53
2023-04-25T00:30:06.087Z,86.43
2023-04-25T00:31:07.742Z,86.49
2023-04-25T00:32:09.274Z,86.41
2023-04-25T00:33:10.744Z,86.42
2023-04-25T00:34:12.254Z,86.55
2023-04-25T00:35:13.736Z,86.51
2023-04-25T00:36:15.240Z,86.59
2023-04-25T00:37:16.776Z,86.52
2023-04-25T00:38:18.273Z,86.36
2023-04-25T00:39:20.137Z,86.56
2023-04-25T00:40:21.731Z,86.66
2023-04-25T00:41:25.582Z,86.70
2023-04-25T00:42:27.361Z,86.67
2023-04-25T00:43:31.730Z,86.75
2023-04-25T00:44:35.718Z,86.64
2023-04-25T00:45:39.685Z,86.82
2023-04-25T00:46:41.758Z,86.64
2023-04-25T00:47:43.879Z,86.88
2023-04-25T00:48:45.733Z,86.77
2023-04-25T00:49:47.629Z,86.77
2023-04-25T00:50:56.996Z,86.73
2023-04-25T00:51:58.478Z,86.84
2023-04-25T00:53:01.098Z,86.91
2023-04-25T00:54:02.697Z,87.01
2023-04-25T00:55:04.745Z,86.83
2023-04-25T00:56:06.421Z,86.71
2023-04-25T00:57:07.980Z,86.71
2023-04-25T00:58:09.530Z,86.71
2023-04-25T00:59:11.587Z,86.83
2023-04-25T01:00:15.234Z,86.86
2023-04-25T01:01:16.845Z,86.84
2023-04-25T01:02:18.821Z,86.86
2023-04-25T01:03:21.389Z,86.80
2023-04-25T01:04:23.503Z,86.75
2023-04-25T01:05:25.294Z,86.84
2023-04-25T01:06:27.780Z,86.73
2023-04-25T01:07:29.557Z,86.82
2023-04-25T01:08:31.897Z,86.79
2023-04-25T01:09:33.532Z,86.86
2023-04-25T01:10:36.289Z,86.81
2023-04-25T01:11:37.790Z,86.89
2023-04-25T01:12:39.734Z,86.82
2023-04-25T01:13:41.374Z,86.90
2023-04-25T01:14:42.897Z,87.19
2023-04-25T01:15:44.973Z,86.96
2023-04-25T01:16:46.938Z,87.01
2023-04-25T01:17:49.582Z,87.00
2023-04-25T01:18:51.708Z,87.05
2023-04-25T01:19:53.222Z,87.15
2023-04-25T01:20:55.921Z,87.18
2023-04-25T01:21:57.435Z,87.23
2023-04-25T01:22:59.554Z,87.21
2023-04-25T01:24:01.398Z,87.11
2023-04-25T01:25:03.360Z,87.19
2023-04-25T01:26:07.205Z,87.26
2023-04-25T01:27:09.154Z,87.27
2023-04-25T01:28:10.878Z,87.38
2023-04-25T01:29:12.589Z,87.54
2023-04-25T01:31:44.946Z,87.64
2023-04-25T01:32:47.861Z,87.74
2023-04-25T01:33:49.617Z,87.76
2023-04-25T01:34:51.480Z,87.80
2023-04-25T01:35:55.044Z,87.72
2023-04-25T01:36:56.506Z,87.75
2023-04-25T01:37:58.441Z,87.80
2023-04-25T01:39:01.037Z,87.95
2023-04-25T01:40:05.581Z,87.88
2023-04-25T01:41:07.433Z,87.85
2023-04-25T01:42:08.954Z,87.82
2023-04-25T01:43:12.309Z,87.95
2023-04-25T01:44:15.015Z,88.11
2023-04-25T01:45:17.025Z,88.09
2023-04-25T01:46:18.763Z,88.19
2023-04-25T01:47:20.548Z,88.10
2023-04-25T01:48:22.070Z,88.27
2023-04-25T01:49:24.027Z,88.31
2023-04-25T01:50:25.788Z,88.24
2023-04-25T01:51:27.439Z,88.35
2023-04-25T01:52:29.388Z,88.26
2023-04-25T01:53:31.646Z,88.26
2023-04-25T01:54:33.480Z,88.54
2023-04-25T01:55:35.312Z,88.64
2023-04-25T01:56:41.304Z,88.48
2023-04-25T01:57:45.205Z,88.57
2023-04-25T01:58:46.947Z,88.65
2023-04-25T02:00:04.579Z,88.65
2023-04-25T02:01:15.136Z,88.79
2023-04-25T02:02:20.236Z,88.80
2023-04-25T02:03:22.011Z,88.97
2023-04-25T02:04:23.985Z,88.87
2023-04-25T02:05:26.610Z,88.88
2023-04-25T02:06:28.442Z,88.94
2023-04-25T02:07:32.869Z,88.96
2023-04-25T02:08:34.847Z,89.04
2023-04-25T02:09:36.270Z,89.23
2023-04-25T02:10:40.821Z,89.16
2023-04-25T02:11:50.549Z,89.33
2023-04-25T02:13:21.246Z,89.27
2023-04-25T02:14:25.485Z,89.41
2023-04-25T02:15:40.274Z,89.39
2023-04-25T02:16:52.595Z,89.44
2023-04-25T02:17:54.316Z,89.40
2023-04-25T02:18:55.719Z,89.36
2023-04-25T02:19:57.143Z,89.49
2023-04-25T02:21:01.664Z,89.43
2023-04-25T02:22:03.117Z,89.55
2023-04-25T02:23:04.707Z,89.57
2023-04-25T02:24:06.683Z,89.52
2023-04-25T02:25:11.066Z,89.58
2023-04-25T02:26:13.677Z,89.69
2023-04-25T02:27:16.864Z,89.75
2023-04-25T02:28:18.470Z,89.67
2023-04-25T02:29:20.432Z,89.91
2023-04-25T02:30:21.999Z,89.86
2023-04-25T02:31:23.637Z,89.84
2023-04-25T02:32:26.167Z,89.74
2023-04-25T02:33:27.711Z,89.80
2023-04-25T02:34:29.172Z,89.83
2023-04-25T02:35:30.607Z,89.78
2023-04-25T02:36:34.514Z,89.86
2023-04-25T02:37:37.932Z,89.93
2023-04-25T02:38:40.099Z,90.22
2023-04-25T02:39:41.651Z,89.88
2023-04-25T02:40:43.477Z,89.92
2023-04-25T02:41:45.094Z,90.00
2023-04-25T02:42:46.523Z,90.25
2023-04-25T02:43:48.028Z,90.13
2023-04-25T02:44:49.654Z,90.05
2023-04-25T02:45:51.550Z,90.12
2023-04-25T02:46:53.831Z,90.23
2023-04-25T02:47:55.407Z,90.13
2023-04-25T02:48:56.925Z,90.16
2023-04-25T02:49:58.493Z,90.03
2023-04-25T02:51:00.412Z,90.09
2023-04-25T02:52:04.493Z,90.19
2023-04-25T02:53:06.176Z,90.22
2023-04-25T02:54:11.499Z,90.30
2023-04-25T02:55:15.907Z,90.26
2023-04-25T02:56:17.967Z,90.42
2023-04-25T02:57:19.541Z,90.26
2023-04-25T02:58:21.129Z,90.37
2023-04-25T02:59:24.993Z,90.31
2023-04-25T03:00:26.399Z,90.27
2023-04-25T03:01:28.406Z,90.35
2023-04-25T03:02:30.106Z,90.33
2023-04-25T03:03:31.802Z,90.30
2023-04-25T03:04:33.792Z,90.44
2023-04-25T03:05:35.678Z,90.52
2023-04-25T03:06:37.369Z,90.50
2023-04-25T03:07:39.773Z,90.53
2023-04-25T03:08:41.316Z,90.50
2023-04-25T03:09:42.806Z,90.42
2023-04-25T03:10:45.618Z,90.08
2023-04-25T03:11:48.385Z,90.20
2023-04-25T03:12:50.195Z,90.16
2023-04-25T03:13:51.849Z,90.15
2023-04-25T03:14:54.612Z,90.24
2023-04-25T03:15:56.106Z,90.23
2023-04-25T03:16:57.722Z,90.11
2023-04-25T03:17:59.286Z,90.06
2023-04-25T03:19:00.982Z,90.22
2023-04-25T03:20:04.326Z,90.21
2023-04-25T03:21:06.295Z,90.06
2023-04-25T03:22:07.771Z,90.10
2023-04-25T03:23:10.305Z,90.16
2023-04-25T03:24:12.372Z,90.26
2023-04-25T03:25:13.784Z,90.29
2023-04-25T03:26:15.931Z,90.17
2023-04-25T03:27:18.094Z,90.34
2023-04-25T03:28:20.289Z,90.29
2023-04-25T03:29:24.756Z,90.36
2023-04-25T03:30:26.956Z,90.51
2023-04-25T03:31:28.513Z,90.48
2023-04-25T03:32:30.530Z,90.46
2023-04-25T03:33:32.345Z,90.43
2023-04-25T03:34:33.780Z,90.50
2023-04-25T03:35:35.150Z,90.43
2023-04-25T03:36:36.521Z,90.39
2023-04-25T03:37:38.050Z,90.48
2023-04-25T03:38:41.594Z,90.53
2023-04-25T03:39:43.682Z,90.63
2023-04-25T03:40:46.069Z,90.45
2023-04-25T03:41:57.995Z,91.19
2023-04-25T03:42:59.741Z,90.18
2023-04-25T03:44:01.339Z,89.28
2023-04-25T03:45:03.352Z,89.33
2023-04-25T03:46:05.336Z,88.98
2023-04-25T03:47:06.815Z,88.40
2023-04-25T03:48:09.354Z,86.90
2023-04-25T03:49:10.773Z,86.06
2023-04-25T03:50:27.399Z,86.18
2023-04-25T03:51:28.918Z,86.18
2023-04-25T03:52:30.370Z,86.09
2023-04-25T03:53:31.930Z,86.00
2023-04-25T03:55:08.960Z,85.76
2023-04-25T03:56:11.264Z,85.75
2023-04-25T03:57:13.342Z,85.85
2023-04-25T03:58:14.898Z,85.56
2023-04-25T03:59:16.528Z,85.57
2023-04-25T04:00:18.023Z,85.29
2023-04-25T04:01:19.741Z,85.51
2023-04-25T04:02:21.465Z,85.65
2023-04-25T04:03:23.776Z,85.24
2023-04-25T04:04:26.137Z,85.39
2023-04-25T04:05:28.780Z,85.80
2023-04-25T04:06:31.506Z,85.94
2023-04-25T04:07:46.661Z,85.66
2023-04-25T04:08:48.700Z,85.48
2023-04-25T04:09:50.177Z,85.50
2023-04-25T04:10:59.339Z,85.34
2023-04-25T04:12:02.141Z,85.15
2023-04-25T04:13:05.278Z,85.05
2023-04-25T04:14:08.672Z,84.81
2023-04-25T04:15:11.419Z,84.56
2023-04-25T04:16:13.273Z,84.59
2023-04-25T04:17:15.680Z,84.63
2023-04-25T04:18:17.186Z,84.43
2023-04-25T04:19:18.687Z,84.62
2023-04-25T04:20:26.986Z,84.17
2023-04-25T04:21:28.593Z,84.10
2023-04-25T04:22:30.163Z,84.23
2023-04-25T04:23:35.199Z,83.99
2023-04-25T04:24:37.327Z,84.06
2023-04-25T04:25:42.225Z,83.97
2023-04-25T04:27:13.319Z,83.37
2023-04-25T04:28:28.909Z,83.31
2023-04-25T04:29:40.003Z,83.61
2023-04-25T04:31:05.175Z,83.30
2023-04-25T04:32:09.003Z,83.73
2023-04-25T04:33:11.607Z,83.63
2023-04-25T04:34:13.262Z,83.73
2023-04-25T04:35:14.983Z,83.50
2023-04-25T04:36:19.993Z,83.68
2023-04-25T04:37:22.244Z,83.75
2023-04-25T04:38:24.300Z,84.03
2023-04-25T04:39:27.370Z,83.88
2023-04-25T04:40:48.057Z,83.66
2023-04-25T04:42:08.925Z,83.68
2023-04-25T04:43:26.284Z,83.87
2023-04-25T04:44:46.749Z,83.61
2023-04-25T04:46:10.624Z,83.94
2023-04-25T04:47:31.110Z,84.17
2023-04-25T04:49:11.595Z,83.74
2023-04-25T04:50:33.038Z,83.95
2023-04-25T04:51:59.686Z,83.73
2023-04-25T04:53:10.984Z,83.70
2023-04-25T04:54:32.822Z,83.32
2023-04-25T04:56:12.815Z,83.77
2023-04-25T04:57:29.203Z,83.63
2023-04-25T04:58:49.385Z,83.67
2023-04-25T05:00:14.111Z,83.56
2023-04-25T05:01:47.139Z,83.49
2023-04-25T05:03:07.858Z,83.62
2023-04-25T05:04:36.192Z,83.60
2023-04-25T05:06:13.097Z,83.80
2023-04-25T05:07:43.537Z,83.46
2023-04-25T05:08:59.321Z,83.67
2023-04-25T05:10:21.136Z,83.55
2023-04-25T05:11:50.768Z,83.40
2023-04-25T05:13:13.374Z,83.46
2023-04-25T05:14:44.101Z,83.37
2023-04-25T05:16:06.129Z,83.62
2023-04-25T05:17:23.225Z,83.00
2023-04-25T05:18:43.329Z,82.99
2023-04-25T05:20:11.159Z,83.01
2023-04-25T05:21:31.751Z,82.96
2023-04-25T05:22:56.478Z,83.11
2023-04-25T05:24:12.161Z,82.78
2023-04-25T05:25:51.825Z,82.18
2023-04-25T05:27:02.646Z,82.42
2023-04-25T05:28:29.266Z,82.12
2023-04-25T05:29:55.089Z,82.28
2023-04-25T05:31:04.125Z,82.33
2023-04-25T05:32:15.240Z,82.20
2023-04-25T05:33:17.133Z,82.12
2023-04-25T05:34:19.368Z,82.11
2023-04-25T05:35:46.850Z,82.14
2023-04-25T05:36:49.365Z,82.19
2023-04-25T05:37:51.060Z,82.22
2023-04-25T05:38:54.654Z,82.12
2023-04-25T05:39:56.191Z,82.27
2023-04-25T05:41:20.703Z,81.76
2023-04-25T05:42:31.560Z,81.69
2023-04-25T05:43:47.243Z,81.69
2023-04-25T05:45:23.802Z,81.94
2023-04-25T05:46:39.986Z,82.07
2023-04-25T05:47:59.475Z,81.69
2023-04-25T05:49:19.802Z,81.78
2023-04-25T05:50:56.841Z,81.84
2023-04-25T05:52:13.459Z,81.53
2023-04-25T05:53:22.572Z,81.80
2023-04-25T05:54:30.798Z,81.35
2023-04-25T05:55:32.475Z,81.40
2023-04-25T05:56:35.985Z,81.41
2023-04-25T05:57:37.486Z,81.55
2023-04-25T05:58:40.578Z,81.34
2023-04-25T05:59:42.736Z,81.09
2023-04-25T06:00:44.846Z,81.17
2023-04-25T06:01:47.064Z,81.36
2023-04-25T06:02:48.915Z,81.29
2023-04-25T06:03:51.958Z,80.99
2023-04-25T06:04:54.122Z,80.81
2023-04-25T06:05:57.772Z,80.59
2023-04-25T06:06:59.289Z,80.57
2023-04-25T06:08:02.236Z,80.73
2023-04-25T06:09:03.784Z,81.06
2023-04-25T06:10:07.669Z,80.78
2023-04-25T06:11:09.090Z,80.76
2023-04-25T06:12:10.637Z,80.65
2023-04-25T06:13:12.265Z,80.30
2023-04-25T06:14:14.448Z,79.87
2023-04-25T06:16:26.290Z,79.51
2023-04-25T06:17:28.219Z,78.84
2023-04-25T06:18:29.736Z,78.52
2023-04-25T06:19:31.313Z,78.99
2023-04-25T06:20:32.925Z,78.29
2023-04-25T06:21:34.926Z,77.97
2023-04-25T06:22:36.419Z,78.20
2023-04-25T06:23:37.862Z,78.18
2023-04-25T06:24:42.276Z,78.18
2023-04-25T06:25:43.747Z,78.13
2023-04-25T06:26:45.229Z,77.94
2023-04-25T06:27:47.177Z,77.91
2023-04-25T06:28:48.679Z,77.92
2023-04-25T06:29:50.421Z,77.79
2023-04-25T06:30:52.001Z,77.30
2023-04-25T06:31:54.344Z,77.21
2023-04-25T06:32:56.572Z,77.29
2023-04-25T06:33:58.817Z,77.29
2023-04-25T06:35:01.073Z,77.43
2023-04-25T06:36:02.742Z,77.50
2023-04-25T06:37:06.307Z,77.66
2023-04-25T06:38:07.972Z,77.28
2023-04-25T06:39:11.614Z,77.51
2023-04-25T06:40:13.123Z,77.46
2023-04-25T06:41:14.725Z,77.29
2023-04-25T06:42:16.379Z,77.25
2023-04-25T06:43:25.344Z,77.13
2023-04-25T06:44:53.004Z,77.41
2023-04-25T06:45:57.691Z,77.47
2023-04-25T06:47:00.718Z,77.77
2023-04-25T06:48:02.651Z,77.75
2023-04-25T06:49:04.281Z,78.01
2023-04-25T06:50:06.324Z,78.04
2023-04-25T06:51:11.443Z,77.69
2023-04-25T06:52:13.735Z,78.59
2023-04-25T06:53:15.327Z,77.95
2023-04-25T06:54:18.257Z,78.13
2023-04-25T06:55:26.965Z,78.31
2023-04-25T06:56:51.337Z,78.03
2023-04-25T06:57:52.859Z,78.17
2023-04-25T06:59:16.260Z,78.23
2023-04-25T07:00:20.773Z,78.22
2023-04-25T07:01:22.347Z,77.65
2023-04-25T07:02:24.446Z,78.05
2023-04-25T07:03:27.161Z,77.96
2023-04-25T07:04:33.167Z,77.83
2023-04-25T07:05:35.420Z,77.98
2023-04-25T07:06:42.648Z,77.73
2023-04-25T07:07:44.182Z,77.69
2023-04-25T07:08:45.707Z,77.88
2023-04-25T07:09:47.339Z,77.58
2023-04-25T07:10:50.145Z,77.43
2023-04-25T07:11:51.737Z,77.16
2023-04-25T07:12:53.545Z,77.59
2023-04-25T07:13:55.818Z,77.46
2023-04-25T07:14:57.828Z,77.36
2023-04-25T07:16:00.213Z,77.21
2023-04-25T07:17:02.739Z,77.31
2023-04-25T07:18:05.284Z,77.03
2023-04-25T07:19:06.997Z,76.82
2023-04-25T07:20:10.373Z,76.56
2023-04-25T07:21:12.066Z,76.70
2023-04-25T07:22:15.162Z,76.92
2023-04-25T07:23:17.200Z,77.00
2023-04-25T07:24:19.287Z,76.53
2023-04-25T07:25:21.402Z,76.57
2023-04-25T07:26:22.964Z,76.27
2023-04-25T07:27:46.863Z,76.22
2023-04-25T07:28:52.407Z,76.23
2023-04-25T07:29:54.353Z,76.10
2023-04-25T07:30:58.497Z,76.06
2023-04-25T07:32:00.128Z,75.81
2023-04-25T07:33:01.794Z,75.55
2023-04-25T07:34:03.457Z,75.36
2023-04-25T07:35:07.491Z,75.54
2023-04-25T07:36:09.000Z,75.50
2023-04-25T07:37:10.956Z,75.52
2023-04-25T07:38:22.049Z,75.31
2023-04-25T07:39:23.683Z,75.17
2023-04-25T07:40:25.886Z,75.08
2023-04-25T07:41:31.641Z,75.25
2023-04-25T07:42:33.827Z,75.31
2023-04-25T07:43:36.056Z,75.45
2023-04-25T07:44:40.480Z,75.37
2023-04-25T07:45:46.752Z,75.15
2023-04-25T07:46:49.303Z,75.23
2023-04-25T07:47:50.773Z,74.90
2023-04-25T07:48:52.749Z,74.92
2023-04-25T07:49:54.918Z,74.67
2023-04-25T07:50:56.792Z,75.18
2023-04-25T07:51:58.454Z,75.10
2023-04-25T07:53:00.138Z,75.07
2023-04-25T07:54:06.337Z,74.67
2023-04-25T07:55:09.676Z,74.16
2023-04-25T07:56:26.345Z,74.41
2023-04-25T07:57:28.010Z,74.52
2023-04-25T07:58:30.319Z,74.41
2023-04-25T07:59:35.566Z,74.08
2023-04-25T08:00:38.220Z,74.24
2023-04-25T08:02:03.036Z,74.14
2023-04-25T08:03:04.693Z,74.28
2023-04-25T08:04:07.447Z,74.41
2023-04-25T08:05:38.877Z,74.07
2023-04-25T08:06:41.344Z,74.24
2023-04-25T08:07:47.137Z,74.15
2023-04-25T08:08:48.937Z,73.92
2023-04-25T08:09:52.867Z,73.83
2023-04-25T08:10:59.608Z,73.56
2023-04-25T08:12:02.552Z,73.46
2023-04-25T08:13:06.351Z,73.30
2023-04-25T08:14:09.867Z,73.17
2023-04-25T08:15:14.046Z,73.29
2023-04-25T08:16:16.198Z,73.23
2023-04-25T08:17:17.719Z,73.18
2023-04-25T08:18:20.634Z,73.27
2023-04-25T08:19:22.871Z,73.39
2023-04-25T08:20:25.424Z,73.50
2023-04-25T08:21:27.973Z,73.52
2023-04-25T08:22:30.736Z,73.47
2023-04-25T08:23:50.504Z,73.21
2023-04-25T08:25:02.611Z,72.38
2023-04-25T08:26:05.260Z,72.40
2023-04-25T08:27:08.136Z,72.52
2023-04-25T08:28:10.326Z,72.27
2023-04-25T08:29:12.085Z,72.13
2023-04-25T08:30:15.074Z,72.12
2023-04-25T08:31:17.697Z,71.96
2023-04-25T08:32:30.951Z,71.84
2023-04-25T08:33:47.941Z,71.89
2023-04-25T08:34:57.182Z,71.35
2023-04-25T08:35:59.388Z,71.37
2023-04-25T08:37:01.972Z,71.33
2023-04-25T08:38:14.961Z,71.04
2023-04-25T08:39:16.524Z,71.19
2023-04-25T08:40:32.903Z,70.43
2023-04-25T08:41:42.000Z,70.37
2023-04-25T08:42:43.831Z,70.56
2023-04-25T08:43:47.074Z,70.67
2023-04-25T08:44:49.423Z,70.48
2023-04-25T08:45:53.925Z,70.55
2023-04-25T08:47:13.436Z,70.32
2023-04-25T08:48:19.665Z,70.03
2023-04-25T08:49:21.558Z,69.81
2023-04-25T08:50:23.713Z,70.34
2023-04-25T08:51:31.257Z,70.35
2023-04-25T08:52:40.293Z,70.08
2023-04-25T08:53:46.158Z,69.89
2023-04-25T08:54:49.338Z,69.91
2023-04-25T08:55:54.110Z,69.94
2023-04-25T08:56:58.801Z,69.51
2023-04-25T08:58:01.173Z,68.71
2023-04-25T08:59:02.892Z,68.82
2023-04-25T09:00:06.146Z,69.43
2023-04-25T09:01:09.795Z,69.57
2023-04-25T09:02:20.214Z,69.78
2023-04-25T09:03:24.005Z,69.54
2023-04-25T09:04:26.252Z,69.54
2023-04-25T09:05:29.085Z,69.66
2023-04-25T09:06:31.016Z,69.78
2023-04-25T09:07:33.391Z,69.85
2023-04-25T09:08:37.179Z,69.58
2023-04-25T09:09:39.645Z,69.59
2023-04-25T09:10:41.382Z,69.21
2023-04-25T09:11:43.188Z,69.35
2023-04-25T09:12:57.098Z,69.54
2023-04-25T09:14:15.496Z,69.22
2023-04-25T09:15:51.688Z,69.17
2023-04-25T09:17:13.534Z,69.03
2023-04-25T09:18:31.125Z,69.18
2023-04-25T09:19:40.290Z,68.66
2023-04-25T09:21:56.534Z,68.53
2023-04-25T09:23:05.741Z,68.17
2023-04-25T09:24:09.089Z,67.96
2023-04-25T09:25:12.224Z,67.45
2023-04-25T09:26:17.285Z,67.99
2023-04-25T09:27:23.127Z,67.18
2023-04-25T09:28:28.513Z,66.99
2023-04-25T09:29:35.005Z,67.29
2023-04-25T09:30:37.285Z,67.59
2023-04-25T09:31:52.409Z,67.39
2023-04-25T09:32:57.331Z,66.84
2023-04-25T09:34:02.775Z,67.17
2023-04-25T09:35:10.678Z,67.11
2023-04-25T09:36:13.577Z,67.31
2023-04-25T09:37:37.258Z,67.16
2023-04-25T09:39:15.557Z,67.11
2023-04-25T09:40:20.088Z,67.07
2023-04-25T09:41:30.248Z,67.23
2023-04-25T09:42:35.848Z,67.12
2023-04-25T09:43:38.187Z,67.17
2023-04-25T09:44:46.250Z,67.15
2023-04-25T09:45:48.933Z,67.22
2023-04-25T09:46:54.548Z,67.28
2023-04-25T09:48:06.421Z,67.28
2023-04-25T09:49:08.649Z,67.21
2023-04-25T09:50:20.243Z,67.40
2023-04-25T09:51:27.326Z,67.48
2023-04-25T09:52:29.384Z,67.33
2023-04-25T09:53:50.220Z,66.85
2023-04-25T09:55:14.611Z,66.26
2023-04-25T09:56:16.518Z,66.43
2023-04-25T09:57:24.949Z,66.57
2023-04-25T09:58:32.703Z,66.68
2023-04-25T09:59:39.040Z,66.85
2023-04-25T10:00:41.619Z,67.01
2023-04-25T10:01:50.420Z,66.70
2023-04-25T10:03:01.759Z,65.97
2023-04-25T10:04:29.209Z,66.44
2023-04-25T10:05:36.082Z,66.69
2023-04-25T10:06:39.220Z,66.77
2023-04-25T10:07:41.514Z,66.60
2023-04-25T10:08:54.093Z,66.94
2023-04-25T10:10:03.645Z,67.06
2023-04-25T10:11:08.202Z,66.62
2023-04-25T10:12:10.209Z,66.70
2023-04-25T10:13:11.852Z,66.70
2023-04-25T10:14:14.010Z,66.74
2023-04-25T10:15:15.848Z,66.71
2023-04-25T10:16:18.120Z,66.08
2023-04-25T10:17:20.420Z,66.14
2023-04-25T10:18:22.412Z,66.07
2023-04-25T10:19:24.950Z,65.85
2023-04-25T10:20:26.627Z,65.84
2023-04-25T10:21:31.757Z,65.88
2023-04-25T10:22:37.258Z,65.03
2023-04-25T10:23:39.171Z,64.79
2023-04-25T10:24:42.091Z,65.50
2023-04-25T10:25:44.252Z,65.74
2023-04-25T10:26:47.243Z,65.72
2023-04-25T10:27:51.798Z,65.42
2023-04-25T10:28:58.162Z,65.83
2023-04-25T10:30:11.543Z,65.86
2023-04-25T10:31:16.739Z,66.04
2023-04-25T10:32:18.353Z,65.78
2023-04-25T10:33:32.568Z,65.58
2023-04-25T10:34:42.736Z,65.58
2023-04-25T10:35:45.736Z,65.44
2023-04-25T10:36:55.200Z,65.47
2023-04-25T10:38:05.489Z,65.34
2023-04-25T10:39:09.178Z,64.84
2023-04-25T10:40:11.684Z,64.76
2023-04-25T10:41:14.381Z,65.00
2023-04-25T10:42:16.158Z,64.94
2023-04-25T10:43:35.840Z,65.01
2023-04-25T10:44:39.260Z,64.85
2023-04-25T10:45:53.528Z,64.54
2023-04-25T10:46:57.224Z,64.57
2023-04-25T10:47:58.717Z,64.80
2023-04-25T10:49:02.171Z,64.74
2023-04-25T10:50:08.762Z,64.67
2023-04-25T10:51:11.766Z,64.64
2023-04-25T10:52:28.548Z,65.03
2023-04-25T10:53:33.820Z,64.95
2023-04-25T10:54:35.327Z,64.64
2023-04-25T10:55:50.320Z,64.44
2023-04-25T10:56:51.901Z,64.58
2023-04-25T10:57:54.711Z,64.32
2023-04-25T10:59:06.609Z,64.21
2023-04-25T11:00:16.944Z,64.33
2023-04-25T11:01:24.860Z,64.56
2023-04-25T11:02:29.557Z,64.56
2023-04-25T11:03:31.516Z,64.02
2023-04-25T11:04:39.079Z,64.20
2023-04-25T11:05:57.378Z,63.94
2023-04-25T11:07:07.964Z,64.02
2023-04-25T11:08:14.432Z,64.07
2023-04-25T11:09:15.927Z,64.04
2023-04-25T11:10:18.004Z,64.22
2023-04-25T11:11:20.092Z,64.40
2023-04-25T11:12:21.799Z,64.56
2023-04-25T11:13:29.168Z,64.76
2023-04-25T11:14:31.297Z,65.08
2023-04-25T11:15:32.819Z,65.07
2023-04-25T11:16:34.423Z,65.46
2023-04-25T11:17:36.111Z,65.98
2023-04-25T11:18:38.673Z,66.26
2023-04-25T11:19:40.859Z,66.16
2023-04-25T11:20:44.021Z,66.47
2023-04-25T11:21:45.515Z,66.29
2023-04-25T11:22:47.691Z,66.44
2023-04-25T11:23:49.297Z,66.47
2023-04-25T11:24:51.368Z,66.22
2023-04-25T11:25:53.022Z,66.32
2023-04-25T11:26:54.679Z,65.91
2023-04-25T11:27:58.217Z,65.83
2023-04-25T11:29:03.143Z,66.00
2023-04-25T11:30:13.652Z,66.20
2023-04-25T11:31:15.636Z,66.43
2023-04-25T11:32:19.732Z,66.39
2023-04-25T11:33:27.451Z,66.26
2023-04-25T11:34:31.042Z,65.99
2023-04-25T11:35:33.997Z,66.16
2023-04-25T11:36:38.504Z,66.69
2023-04-25T11:37:41.383Z,66.95
2023-04-25T11:38:43.108Z,66.72
2023-04-25T11:39:46.463Z,66.95
2023-04-25T11:40:52.693Z,66.76
2023-04-25T11:41:55.017Z,66.59
2023-04-25T11:42:56.617Z,66.86
2023-04-25T11:43:58.830Z,66.68
2023-04-25T11:45:00.754Z,66.74
2023-04-25T11:46:08.450Z,66.70
2023-04-25T11:47:10.037Z,66.87
2023-04-25T11:48:11.871Z,66.83
2023-04-25T11:49:14.458Z,66.86
2023-04-25T11:50:15.866Z,66.70
2023-04-25T11:51:17.779Z,66.91
2023-04-25T11:52:19.197Z,67.12
2023-04-25T11:53:20.788Z,67.16
2023-04-25T11:54:23.302Z,67.22
2023-04-25T11:55:24.857Z,67.09
2023-04-25T11:56:26.444Z,67.14
2023-04-25T11:57:28.035Z,67.24
2023-04-25T11:58:29.482Z,67.14
2023-04-25T11:59:31.296Z,67.07
2023-04-25T12:00:33.045Z,67.15
2023-04-25T12:01:35.975Z,67.07
2023-04-25T12:02:41.376Z,67.15
2023-04-25T12:03:48.809Z,66.97
2023-04-25T12:04:50.904Z,67.31
2023-04-25T12:05:52.809Z,67.44
2023-04-25T12:06:56.006Z,67.59
2023-04-25T12:07:57.783Z,67.71
2023-04-25T12:09:04.140Z,67.85
2023-04-25T12:10:10.678Z,67.94
2023-04-25T12:11:22.244Z,68.09
2023-04-25T12:12:28.213Z,68.27
2023-04-25T12:13:31.893Z,68.26
2023-04-25T12:14:35.984Z,68.23
2023-04-25T12:15:41.160Z,68.25
2023-04-25T12:16:46.084Z,68.22
2023-04-25T12:17:53.215Z,68.39
2023-04-25T12:18:57.348Z,68.61
2023-04-25T12:19:58.828Z,68.73
2023-04-25T12:21:00.432Z,68.52
2023-04-25T12:22:05.485Z,68.42
2023-04-25T12:23:12.002Z,68.73
2023-04-25T12:24:15.892Z,68.61
2023-04-25T12:25:38.457Z,67.62
2023-04-25T12:27:00.250Z,66.89
2023-04-25T12:28:24.939Z,66.67
2023-04-25T12:29:31.749Z,66.57
2023-04-25T12:31:08.798Z,66.91
2023-04-25T12:32:10.783Z,66.94
2023-04-25T12:33:12.292Z,66.95
2023-04-25T12:34:13.888Z,66.94
2023-04-25T12:35:15.350Z,66.78
2023-04-25T12:36:17.374Z,66.71
2023-04-25T12:37:19.919Z,66.80
2023-04-25T12:38:31.873Z,66.78
2023-04-25T12:39:33.665Z,66.97
2023-04-25T12:40:35.262Z,67.40
2023-04-25T12:41:37.965Z,67.39
2023-04-25T12:42:39.347Z,67.52
2023-04-25T12:43:40.784Z,67.56
2023-04-25T12:44:42.686Z,67.51
2023-04-25T12:45:54.940Z,67.78
2023-04-25T12:46:56.601Z,68.28
2023-04-25T12:47:58.166Z,68.19
2023-04-25T12:49:11.671Z,68.36
2023-04-25T12:50:18.939Z,68.53
2023-04-25T12:51:20.365Z,68.57
2023-04-25T12:52:22.103Z,68.54
2023-04-25T12:53:26.497Z,68.69
2023-04-25T12:54:27.899Z,68.53
2023-04-25T12:55:30.082Z,68.93
2023-04-25T12:56:31.927Z,69.04
2023-04-25T12:57:33.453Z,69.22
2023-04-25T12:58:35.041Z,69.20
2023-04-25T12:59:36.576Z,69.16
2023-04-25T13:00:38.226Z,68.90
2023-04-25T13:01:40.061Z,69.09
2023-04-25T13:02:42.062Z,69.29
2023-04-25T13:03:43.990Z,68.97
2023-04-25T13:04:45.905Z,68.84
2023-04-25T13:05:47.715Z,68.61
2023-04-25T13:06:49.375Z,68.81
2023-04-25T13:07:51.682Z,68.74
2023-04-25T13:08:53.800Z,68.74
2023-04-25T13:09:56.059Z,68.81
2023-04-25T13:10:57.538Z,68.90
2023-04-25T13:11:59.390Z,68.67
2023-04-25T13:13:01.565Z,68.87
2023-04-25T13:14:03.276Z,68.93
2023-04-25T13:15:05.413Z,69.02
2023-04-25T13:16:07.815Z,69.09
2023-04-25T13:17:09.580Z,68.90
2023-04-25T13:18:11.216Z,68.97
2023-04-25T13:19:13.010Z,68.75
2023-04-25T13:20:15.335Z,68.64
2023-04-25T13:21:16.829Z,68.86
2023-04-25T13:22:20.486Z,69.16
2023-04-25T13:23:22.503Z,69.09
2023-04-25T13:24:24.135Z,69.08
2023-04-25T13:25:26.149Z,68.54
2023-04-25T13:26:27.723Z,68.55
2023-04-25T13:27:29.222Z,68.85
2023-04-25T13:28:30.767Z,69.15
2023-04-25T13:29:35.055Z,68.66
2023-04-25T13:30:37.287Z,68.53
2023-04-25T13:31:38.905Z,68.59
2023-04-25T13:32:41.329Z,68.36
2023-04-25T13:33:43.953Z,68.30
2023-04-25T13:34:45.534Z,68.42
2023-04-25T13:35:54.250Z,68.30
2023-04-25T13:36:55.942Z,68.01
2023-04-25T13:37:58.260Z,68.12
2023-04-25T13:39:00.033Z,68.10
2023-04-25T13:40:05.196Z,68.37
2023-04-25T13:41:07.630Z,67.98
2023-04-25T13:42:09.018Z,67.94
2023-04-25T13:43:10.609Z,68.49
2023-04-25T13:44:12.121Z,68.54
2023-04-25T13:45:13.783Z,68.78
2023-04-25T13:46:29.950Z,68.94
2023-04-25T13:47:32.114Z,69.07
2023-04-25T13:48:33.673Z,69.10
2023-04-25T13:49:35.145Z,69.25
2023-04-25T13:50:36.941Z,69.17
2023-04-25T13:51:38.427Z,69.20
2023-04-25T13:52:40.629Z,69.48
2023-04-25T13:53:42.164Z,69.13
2023-04-25T13:54:43.700Z,69.59
2023-04-25T13:55:45.326Z,69.52
2023-04-25T13:56:46.862Z,68.75
2023-04-25T13:57:48.436Z,68.26
2023-04-25T13:58:52.793Z,68.47
2023-04-25T13:59:54.340Z,68.36
2023-04-25T14:00:56.461Z,68.46
2023-04-25T14:01:57.972Z,68.35
2023-04-25T14:02:59.562Z,68.34
2023-04-25T14:04:01.295Z,68.16
2023-04-25T14:05:04.508Z,67.87
2023-04-25T14:06:06.498Z,67.67